createdAt,value
2023-08-08T00:01:15.506Z,1.10
2023-08-08T00:03:42.356Z,1.30
2023-08-08T00:06:09.273Z,0.90
2023-08-08T00:08:37.768Z,1.60
2023-08-08T00:11:04.581Z,2.00
2023-08-08T00:13:31.395Z,1.00
2023-08-08T00:15:58.349Z,1.20
2023-08-08T00:18:25.225Z,2.80
2023-08-08T00:20:51.972Z,1.00
2023-08-08T00:23:18.710Z,3.00
2023-08-08T00:25:50.950Z,0.80
2023-08-08T00:28:18.784Z,2.20
2023-08-08T00:30:46.225Z,2.00
2023-08-08T00:33:13.138Z,1.30
2023-08-08T00:35:39.941Z,2.60
2023-08-08T00:38:06.723Z,1.70
2023-08-08T00:40:33.863Z,1.40
2023-08-08T00:43:00.632Z,2.00
2023-08-08T00:45:27.911Z,2.20
2023-08-08T00:47:54.879Z,2.60
2023-08-08T00:50:22.536Z,1.50
2023-08-08T00:52:50.456Z,2.00
2023-08-08T00:55:17.698Z,1.30
2023-08-08T00:57:44.756Z,1.30
2023-08-08T01:00:12.642Z,1.50
2023-08-08T01:02:40.129Z,2.20
2023-08-08T01:05:09.128Z,3.20
2023-08-08T01:07:55.141Z,2.30
2023-08-08T01:10:27.654Z,3.20
2023-08-08T01:13:03.870Z,1.80
2023-08-08T01:15:36.715Z,5.30
2023-08-08T01:18:08.621Z,2.40
2023-08-08T01:20:36.251Z,2.90
2023-08-08T01:23:15.211Z,1.30
2023-08-08T01:25:42.597Z,1.30
2023-08-08T01:28:09.862Z,1.30
2023-08-08T01:30:36.704Z,1.90
2023-08-08T01:33:04.576Z,1.50
2023-08-08T01:35:35.954Z,1.60
2023-08-08T01:38:15.116Z,1.90
2023-08-08T01:40:44.017Z,1.80
2023-08-08T01:43:11.576Z,1.60
2023-08-08T01:45:39.586Z,4.60
2023-08-08T01:48:10.667Z,1.50
2023-08-08T01:50:38.630Z,2.80
2023-08-08T01:53:05.543Z,4.20
2023-08-08T01:55:32.540Z,3.80
2023-08-08T01:57:59.770Z,2.60
2023-08-08T02:00:26.616Z,3.00
2023-08-08T02:02:54.133Z,2.80
2023-08-08T02:05:21.131Z,2.90
2023-08-08T02:07:47.965Z,2.20
2023-08-08T02:10:14.763Z,2.00
2023-08-08T02:12:41.535Z,3.50
2023-08-08T02:15:08.861Z,2.10
2023-08-08T02:17:35.633Z,3.50
2023-08-08T02:20:02.450Z,1.60
2023-08-08T02:22:29.260Z,2.00
2023-08-08T02:24:55.982Z,2.20
2023-08-08T02:27:22.876Z,3.30
2023-08-08T02:29:49.793Z,8.60
2023-08-08T02:32:16.550Z,1.40
2023-08-08T02:34:43.558Z,7.60
2023-08-08T02:37:10.271Z,4.40
2023-08-08T02:39:37.088Z,2.00
2023-08-08T02:42:04.182Z,2.70
2023-08-08T02:44:30.907Z,2.10
2023-08-08T02:46:57.858Z,3.40
2023-08-08T02:49:24.693Z,2.30
2023-08-08T02:51:51.411Z,3.40
2023-08-08T02:54:18.158Z,1.30
2023-08-08T02:56:44.954Z,1.70
2023-08-08T02:59:11.748Z,1.90
2023-08-08T03:01:40.621Z,4.30
2023-08-08T03:04:07.787Z,2.20
2023-08-08T03:06:34.534Z,2.00
2023-08-08T03:09:01.296Z,3.30
2023-08-08T03:11:28.176Z,2.40
2023-08-08T03:13:54.918Z,2.10
2023-08-08T03:16:21.772Z,2.10
2023-08-08T03:18:48.597Z,4.70
2023-08-08T03:21:15.392Z,2.00
2023-08-08T03:23:42.115Z,2.90
2023-08-08T03:26:08.896Z,1.80
2023-08-08T03:28:35.618Z,1.60
2023-08-08T03:31:04.395Z,2.90
2023-08-08T03:33:31.201Z,3.30
2023-08-08T03:35:57.900Z,2.80
2023-08-08T03:38:24.670Z,1.90
2023-08-08T03:40:52.386Z,3.10
2023-08-08T03:43:19.121Z,7.90
2023-08-08T03:48:27.377Z,4.30
2023-08-08T03:50:54.139Z,1.70
2023-08-08T03:53:20.829Z,2.40
2023-08-08T03:55:47.698Z,1.50
2023-08-08T03:58:14.443Z,4.40
2023-08-08T04:00:47.561Z,1.80
2023-08-08T04:03:18.633Z,5.90
2023-08-08T04:05:49.832Z,4.10
2023-08-08T04:08:17.217Z,5.10
2023-08-08T04:10:48.026Z,2.90
2023-08-08T04:13:14.840Z,2.80
2023-08-08T04:15:41.993Z,3.10
2023-08-08T04:18:08.829Z,3.60
2023-08-08T04:20:35.929Z,6.00
2023-08-08T04:23:02.824Z,3.50
2023-08-08T04:25:30.079Z,5.20
2023-08-08T04:27:56.874Z,3.60
2023-08-08T04:30:24.993Z,1.30
2023-08-08T04:32:52.157Z,6.00
2023-08-08T04:35:19.081Z,2.10
2023-08-08T04:37:45.981Z,2.40
2023-08-08T04:40:13.079Z,1.90
2023-08-08T04:42:40.563Z,1.60
2023-08-08T04:45:08.466Z,4.00
2023-08-08T04:47:35.326Z,4.50
2023-08-08T04:50:02.436Z,2.10
2023-08-08T04:52:29.537Z,3.70
2023-08-08T04:54:56.328Z,3.10
2023-08-08T04:57:23.165Z,2.30
2023-08-08T04:59:50.436Z,2.10
2023-08-08T05:02:17.690Z,2.60
2023-08-08T05:04:44.523Z,4.40
2023-08-08T05:07:11.511Z,3.80
2023-08-08T05:09:38.316Z,2.30
2023-08-08T05:12:06.002Z,4.60
2023-08-08T05:14:33.484Z,1.60
2023-08-08T05:17:00.584Z,2.80
2023-08-08T05:19:27.375Z,2.20
2023-08-08T05:21:54.617Z,2.90
2023-08-08T05:24:21.411Z,4.20
2023-08-08T05:26:48.237Z,4.00
2023-08-08T05:29:18.478Z,4.20
2023-08-08T05:31:45.281Z,5.30
2023-08-08T05:34:12.062Z,3.70
2023-08-08T05:36:38.905Z,5.40
2023-08-08T05:39:05.642Z,2.10
2023-08-08T05:41:32.436Z,4.30
2023-08-08T05:43:59.226Z,3.10
2023-08-08T05:46:26.109Z,3.50
2023-08-08T05:48:53.141Z,2.20
2023-08-08T05:51:19.925Z,3.20
2023-08-08T05:53:46.686Z,2.00
2023-08-08T05:56:13.508Z,2.90
2023-08-08T05:58:40.402Z,2.50
2023-08-08T06:01:10.498Z,2.40
2023-08-08T06:03:39.169Z,1.90
2023-08-08T06:06:07.561Z,4.10
2023-08-08T06:08:35.610Z,3.80
2023-08-08T06:11:02.453Z,1.70
2023-08-08T06:13:29.293Z,3.20
2023-08-08T06:15:56.230Z,2.40
2023-08-08T06:18:23.060Z,4.10
2023-08-08T06:20:49.865Z,5.00
2023-08-08T06:23:16.709Z,2.40
2023-08-08T06:25:43.734Z,2.40
2023-08-08T06:28:11.133Z,3.20
2023-08-08T06:30:38.190Z,2.20
2023-08-08T06:33:05.329Z,2.90
2023-08-08T06:35:32.094Z,3.60
2023-08-08T06:37:58.917Z,3.20
2023-08-08T06:40:25.843Z,2.60
2023-08-08T06:42:52.714Z,5.10
2023-08-08T06:45:20.207Z,3.30
2023-08-08T06:47:47.663Z,2.60
2023-08-08T06:50:14.471Z,3.10
2023-08-08T06:52:41.783Z,4.60
2023-08-08T06:55:09.145Z,1.60
2023-08-08T06:57:36.851Z,1.80
2023-08-08T07:00:06.639Z,1.70
2023-08-08T07:02:33.686Z,5.50
2023-08-08T07:05:00.689Z,2.00
2023-08-08T07:07:27.663Z,5.60
2023-08-08T07:09:54.498Z,3.10
2023-08-08T07:12:21.721Z,3.00
2023-08-08T07:14:48.724Z,2.90
2023-08-08T07:17:15.987Z,2.00
2023-08-08T07:19:43.028Z,6.10
2023-08-08T07:22:10.167Z,4.00
2023-08-08T07:24:37.252Z,3.00
2023-08-08T07:27:04.646Z,4.70
2023-08-08T07:29:32.179Z,3.50
2023-08-08T07:31:59.884Z,2.10
2023-08-08T07:34:27.217Z,2.30
2023-08-08T07:36:54.006Z,2.80
2023-08-08T07:39:21.370Z,4.40
2023-08-08T07:41:48.412Z,3.60
2023-08-08T07:44:15.521Z,3.80
2023-08-08T07:46:42.898Z,3.10
2023-08-08T07:49:10.734Z,2.80
2023-08-08T07:51:37.816Z,3.40
2023-08-08T07:54:06.820Z,5.80
2023-08-08T07:56:33.622Z,1.60
2023-08-08T07:59:01.027Z,2.20
2023-08-08T08:01:28.701Z,1.10
2023-08-08T08:03:55.901Z,3.70
2023-08-08T08:06:23.015Z,1.90
2023-08-08T08:08:49.785Z,1.80
2023-08-08T08:11:18.164Z,2.80
2023-08-08T08:13:45.147Z,2.20
2023-08-08T08:16:12.132Z,2.60
2023-08-08T08:18:38.974Z,2.30
2023-08-08T08:21:06.354Z,3.40
2023-08-08T08:23:33.732Z,2.60
2023-08-08T08:26:01.214Z,3.20
2023-08-08T08:28:28.222Z,2.40
2023-08-08T08:30:55.452Z,2.50
2023-08-08T08:33:22.620Z,2.80
2023-08-08T08:35:49.651Z,2.60
2023-08-08T08:38:16.737Z,2.80
2023-08-08T08:40:47.361Z,4.70
2023-08-08T08:43:15.182Z,2.80
2023-08-08T08:45:44.793Z,2.80
2023-08-08T08:48:12.983Z,3.60
2023-08-08T08:50:41.034Z,2.80
2023-08-08T08:53:08.517Z,3.30
2023-08-08T08:55:35.588Z,2.30
2023-08-08T08:58:03.276Z,4.00
2023-08-08T09:00:32.236Z,2.40
2023-08-08T09:02:59.970Z,1.60
2023-08-08T09:05:28.085Z,3.80
2023-08-08T09:07:55.267Z,1.60
2023-08-08T09:10:23.037Z,2.80
2023-08-08T09:12:50.710Z,3.50
2023-08-08T09:15:17.854Z,4.20
2023-08-08T09:17:49.349Z,4.30
2023-08-08T09:20:18.587Z,3.60
2023-08-08T09:22:45.987Z,3.50
2023-08-08T09:25:13.431Z,2.40
2023-08-08T09:27:43.104Z,2.30
2023-08-08T09:30:11.723Z,2.00
2023-08-08T09:32:39.158Z,3.60
2023-08-08T09:35:10.952Z,2.50
2023-08-08T09:37:39.647Z,6.00
2023-08-08T09:40:09.487Z,3.70
2023-08-08T09:42:37.622Z,3.50
2023-08-08T09:45:05.206Z,1.90
2023-08-08T09:47:32.787Z,4.10
2023-08-08T09:50:07.516Z,1.70
2023-08-08T09:52:35.733Z,2.20
2023-08-08T09:55:03.592Z,2.10
2023-08-08T09:57:31.583Z,2.20
2023-08-08T09:59:59.118Z,1.80
2023-08-08T10:02:26.584Z,1.70
2023-08-08T10:04:56.656Z,3.00
2023-08-08T10:07:24.302Z,3.10
2023-08-08T10:09:51.333Z,3.20
2023-08-08T10:12:18.939Z,1.70
2023-08-08T10:14:46.559Z,2.50
2023-08-08T10:17:17.097Z,2.90
2023-08-08T10:19:56.228Z,1.70
2023-08-08T10:22:25.343Z,1.90
2023-08-08T10:24:55.072Z,2.10
2023-08-08T10:27:37.685Z,3.90
2023-08-08T10:30:13.684Z,2.10
2023-08-08T10:32:45.214Z,2.50
2023-08-08T10:35:13.613Z,2.30
2023-08-08T10:37:41.530Z,1.80
2023-08-08T10:40:09.848Z,3.40
2023-08-08T10:42:44.883Z,2.40
2023-08-08T10:45:15.336Z,3.20
2023-08-08T10:47:43.188Z,1.50
2023-08-08T10:50:23.068Z,2.40
2023-08-08T10:52:55.575Z,3.30
2023-08-08T10:55:25.623Z,2.70
2023-08-08T10:57:57.505Z,3.60
2023-08-08T11:00:29.086Z,4.00
2023-08-08T11:02:57.164Z,2.80
2023-08-08T11:05:25.114Z,4.00
2023-08-08T11:07:52.291Z,2.70
2023-08-08T11:10:19.894Z,4.30
2023-08-08T11:13:02.796Z,2.10
2023-08-08T11:15:30.677Z,5.00
2023-08-08T11:17:58.854Z,2.90
2023-08-08T11:20:26.683Z,2.30
2023-08-08T11:22:55.693Z,4.10
2023-08-08T11:25:23.802Z,1.90
2023-08-08T11:27:52.615Z,3.30
2023-08-08T11:30:20.971Z,5.00
2023-08-08T11:33:15.208Z,6.10
2023-08-08T11:35:36.382Z,2.80
2023-08-08T11:38:05.758Z,3.80
2023-08-08T11:40:33.468Z,2.70
2023-08-08T11:43:01.383Z,5.30
2023-08-08T11:45:28.607Z,3.40
2023-08-08T11:47:57.103Z,4.00
2023-08-08T11:50:26.710Z,3.50
2023-08-08T11:52:55.425Z,3.10
2023-08-08T11:55:28.626Z,5.20
2023-08-08T11:58:03.630Z,2.40
2023-08-08T12:00:35.359Z,2.10
2023-08-08T12:03:05.852Z,3.10
2023-08-08T12:05:39.505Z,2.30
2023-08-08T12:08:08.229Z,3.20
2023-08-08T12:10:35.287Z,2.80
2023-08-08T12:13:02.764Z,4.30
2023-08-08T12:15:37.263Z,17.40
2023-08-08T12:18:05.246Z,18.00
2023-08-08T12:20:33.353Z,5.50
2023-08-08T12:23:01.373Z,4.10
2023-08-08T12:25:28.869Z,6.70
2023-08-08T12:27:56.082Z,3.30
2023-08-08T12:30:24.967Z,2.60
2023-08-08T12:32:52.197Z,3.70
2023-08-08T12:35:19.216Z,8.00
2023-08-08T12:37:46.324Z,5.00
2023-08-08T12:40:13.843Z,2.70
2023-08-08T12:42:40.865Z,3.40
2023-08-08T12:45:09.455Z,5.10
2023-08-08T12:47:38.837Z,1.90
2023-08-08T12:50:06.992Z,3.00
2023-08-08T12:52:34.044Z,4.60
2023-08-08T12:55:01.386Z,3.30
2023-08-08T12:57:28.402Z,4.90
2023-08-08T12:59:55.993Z,3.90
2023-08-08T13:02:23.198Z,7.10
2023-08-08T13:04:50.269Z,3.70
2023-08-08T13:07:18.069Z,3.10
2023-08-08T13:09:44.968Z,1.70
2023-08-08T13:12:11.941Z,2.50
2023-08-08T13:14:38.966Z,2.10
2023-08-08T13:17:06.026Z,3.70
2023-08-08T13:19:33.035Z,4.30
2023-08-08T13:22:01.178Z,2.10
2023-08-08T13:24:28.499Z,2.60
2023-08-08T13:26:55.570Z,3.30
2023-08-08T13:29:22.622Z,2.40
2023-08-08T13:31:49.662Z,3.60
2023-08-08T13:34:16.646Z,2.70
2023-08-08T13:36:44.033Z,2.20
2023-08-08T13:39:11.647Z,4.50
2023-08-08T13:44:22.026Z,2.00
2023-08-08T13:46:49.024Z,3.10
2023-08-08T13:49:16.037Z,4.20
2023-08-08T13:51:44.658Z,2.70
2023-08-08T13:54:13.233Z,3.30
2023-08-08T13:56:40.265Z,2.30
2023-08-08T13:59:07.249Z,2.20
2023-08-08T14:01:34.313Z,3.10
2023-08-08T14:04:01.499Z,2.00
2023-08-08T14:06:30.135Z,2.90
2023-08-08T14:08:57.097Z,3.50
2023-08-08T14:11:25.143Z,3.00
2023-08-08T14:13:52.106Z,2.50
2023-08-08T14:16:19.295Z,2.10
2023-08-08T14:18:46.530Z,2.10
2023-08-08T14:21:13.554Z,7.40
2023-08-08T14:23:40.573Z,3.40
2023-08-08T14:26:07.615Z,1.70
2023-08-08T14:28:34.622Z,3.10
2023-08-08T14:31:03.388Z,1.90
2023-08-08T14:33:30.353Z,4.70
2023-08-08T14:35:57.313Z,2.00
2023-08-08T14:38:26.652Z,1.40
2023-08-08T14:43:24.762Z,2.00
2023-08-08T14:45:51.836Z,4.30
2023-08-08T14:48:18.895Z,2.40
2023-08-08T14:50:49.419Z,2.50
2023-08-08T14:53:16.526Z,2.80
2023-08-08T14:55:43.518Z,2.30
2023-08-08T14:58:10.566Z,12.50
2023-08-08T15:00:37.612Z,4.30
2023-08-08T15:03:07.974Z,3.80
2023-08-08T15:05:34.860Z,1.80
2023-08-08T15:08:01.642Z,4.60
2023-08-08T15:10:28.719Z,1.60
2023-08-08T15:12:55.668Z,4.50
2023-08-08T15:15:24.525Z,3.00
2023-08-08T15:17:51.582Z,1.60
2023-08-08T15:20:18.433Z,2.20
2023-08-08T15:22:45.245Z,2.10
2023-08-08T15:25:12.184Z,4.30
2023-08-08T15:27:39.137Z,3.90
2023-08-08T15:30:06.941Z,3.00
2023-08-08T15:32:33.880Z,2.00
2023-08-08T15:35:00.667Z,3.20
2023-08-08T15:37:27.682Z,3.30
2023-08-08T15:39:54.613Z,3.40
2023-08-08T15:42:21.456Z,2.70
2023-08-08T15:44:48.244Z,3.00
2023-08-08T15:47:15.240Z,2.50
2023-08-08T15:49:42.089Z,2.60
2023-08-08T15:52:08.937Z,3.30
2023-08-08T15:54:36.124Z,2.20
2023-08-08T15:57:03.743Z,3.80
2023-08-08T15:59:32.376Z,2.80
2023-08-08T16:01:59.148Z,1.70
2023-08-08T16:04:26.269Z,2.00
2023-08-08T16:06:53.217Z,1.50
2023-08-08T16:09:19.993Z,3.80
2023-08-08T16:11:46.843Z,6.40
2023-08-08T16:14:13.996Z,2.40
2023-08-08T16:16:41.938Z,1.60
2023-08-08T16:19:09.336Z,5.50
2023-08-08T16:21:36.347Z,6.00
2023-08-08T16:24:03.960Z,3.20
2023-08-08T16:26:30.824Z,2.70
2023-08-08T16:28:58.258Z,2.40
2023-08-08T16:31:25.189Z,2.50
2023-08-08T16:33:52.269Z,3.70
2023-08-08T16:36:19.073Z,4.60
2023-08-08T16:38:45.834Z,2.90
2023-08-08T16:41:13.117Z,4.40
2023-08-08T16:43:40.086Z,2.60
2023-08-08T16:46:07.126Z,5.80
2023-08-08T16:48:34.154Z,2.10
2023-08-08T16:51:01.260Z,3.00
2023-08-08T16:53:28.067Z,3.20
2023-08-08T16:55:55.042Z,2.70
2023-08-08T16:58:22.138Z,3.10
2023-08-08T17:00:49.216Z,3.20
2023-08-08T17:03:17.942Z,2.80
2023-08-08T17:05:45.025Z,2.50
2023-08-08T17:08:11.832Z,2.10
2023-08-08T17:10:40.751Z,2.20
2023-08-08T17:13:07.565Z,2.70
2023-08-08T17:15:34.277Z,4.40
2023-08-08T17:18:01.738Z,3.00
2023-08-08T17:20:28.793Z,2.10
2023-08-08T17:22:55.949Z,3.60
2023-08-08T17:25:23.085Z,4.10
2023-08-08T17:27:50.256Z,3.60
2023-08-08T17:30:17.290Z,2.10
2023-08-08T17:35:29.058Z,3.10
2023-08-08T17:37:56.364Z,2.30
2023-08-08T17:40:23.413Z,3.40
2023-08-08T17:42:50.426Z,3.70
2023-08-08T17:45:17.542Z,2.80
2023-08-08T17:47:44.374Z,3.70
2023-08-08T17:50:11.272Z,4.90
2023-08-08T17:52:38.139Z,2.90
2023-08-08T17:55:06.680Z,3.30
2023-08-08T17:57:33.728Z,3.50
2023-08-08T18:00:00.903Z,2.60
2023-08-08T18:02:27.908Z,3.30
2023-08-08T18:04:54.939Z,3.50
2023-08-08T18:07:22.765Z,3.80
2023-08-08T18:09:51.350Z,5.30
2023-08-08T18:12:18.867Z,4.90
2023-08-08T18:14:45.878Z,4.80
2023-08-08T18:17:12.622Z,4.20
2023-08-08T18:19:39.663Z,4.10
2023-08-08T18:22:07.507Z,6.60
2023-08-08T18:24:34.600Z,3.80
2023-08-08T18:27:01.675Z,4.40
2023-08-08T18:29:28.706Z,4.70
2023-08-08T18:31:55.624Z,5.00
2023-08-08T18:34:22.754Z,5.30
2023-08-08T18:36:49.731Z,4.30
2023-08-08T18:39:16.579Z,8.20
2023-08-08T18:41:43.335Z,4.80
2023-08-08T18:44:10.287Z,4.60
2023-08-08T18:46:37.360Z,6.80
2023-08-08T18:49:04.641Z,7.50
2023-08-08T18:51:31.702Z,7.70
2023-08-08T18:53:58.593Z,6.80
2023-08-08T18:56:25.742Z,6.40
2023-08-08T18:58:52.723Z,9.50
2023-08-08T19:01:19.505Z,7.00
2023-08-08T19:03:47.252Z,8.50
2023-08-08T19:06:14.344Z,9.60
2023-08-08T19:08:42.131Z,9.50
2023-08-08T19:11:08.971Z,8.90
2023-08-08T19:13:36.018Z,13.20
2023-08-08T19:16:03.036Z,16.60
2023-08-08T19:18:29.930Z,11.30
2023-08-08T19:20:56.735Z,10.40
2023-08-08T19:23:23.754Z,12.70
2023-08-08T19:25:50.819Z,13.50
2023-08-08T19:28:17.803Z,13.20
2023-08-08T19:30:44.863Z,12.30
2023-08-08T19:33:11.840Z,13.80
2023-08-08T19:35:38.857Z,15.80
2023-08-08T19:38:05.615Z,15.50
2023-08-08T19:40:33.703Z,20.30
2023-08-08T19:43:00.877Z,19.20
2023-08-08T19:45:27.888Z,20.80
2023-08-08T19:47:54.911Z,19.60
2023-08-08T19:50:22.422Z,17.00
2023-08-08T19:52:49.635Z,17.30
2023-08-08T19:55:16.705Z,16.60
2023-08-08T19:57:43.656Z,15.90
2023-08-08T20:00:11.172Z,17.40
2023-08-08T20:02:38.219Z,15.30
2023-08-08T20:05:05.509Z,14.20
2023-08-08T20:07:32.663Z,15.80
2023-08-08T20:10:00.032Z,14.00
2023-08-08T20:12:27.000Z,19.30
2023-08-08T20:14:54.557Z,17.70
2023-08-08T20:17:21.486Z,15.60
2023-08-08T20:19:48.455Z,17.20
2023-08-08T20:22:15.676Z,16.30
2023-08-08T20:24:42.510Z,13.60
2023-08-08T20:27:09.507Z,13.60
2023-08-08T20:29:37.640Z,12.80
2023-08-08T20:32:05.132Z,12.10
2023-08-08T20:34:32.314Z,11.60
2023-08-08T20:36:59.793Z,8.80
2023-08-08T20:39:27.006Z,10.30
2023-08-08T20:41:55.922Z,8.20
2023-08-08T20:44:23.675Z,11.00
2023-08-08T20:46:50.604Z,9.30
2023-08-08T20:49:17.588Z,6.50
2023-08-08T20:51:46.517Z,7.60
2023-08-08T20:54:13.522Z,9.10
2023-08-08T20:56:40.994Z,9.00
2023-08-08T20:59:07.969Z,9.80
2023-08-08T21:01:35.009Z,6.60
2023-08-08T21:04:02.081Z,9.40
2023-08-08T21:06:29.123Z,6.10
2023-08-08T21:08:56.078Z,5.10
2023-08-08T21:11:23.079Z,5.40
2023-08-08T21:13:50.195Z,6.50
2023-08-08T21:16:17.133Z,4.80
2023-08-08T21:18:44.092Z,5.40
2023-08-08T21:21:11.078Z,6.40
2023-08-08T21:23:38.041Z,5.10
2023-08-08T21:26:05.023Z,4.20
2023-08-08T21:28:32.603Z,6.70
2023-08-08T21:30:59.691Z,8.80
2023-08-08T21:33:26.789Z,8.30
2023-08-08T21:35:53.847Z,5.90
2023-08-08T21:38:20.812Z,7.30
2023-08-08T21:40:47.814Z,7.60
2023-08-08T21:43:15.041Z,7.60
2023-08-08T21:45:43.053Z,4.30
2023-08-08T21:48:10.121Z,4.00
2023-08-08T21:50:36.915Z,5.30
2023-08-08T21:53:03.982Z,8.20
2023-08-08T21:55:30.893Z,4.30
2023-08-08T21:57:57.997Z,5.20
2023-08-08T22:00:25.564Z,5.20
2023-08-08T22:02:52.644Z,5.80
2023-08-08T22:05:19.674Z,4.70
2023-08-08T22:07:46.765Z,4.40
2023-08-08T22:10:13.727Z,4.40
2023-08-08T22:12:40.692Z,5.90
2023-08-08T22:15:08.756Z,5.90
2023-08-08T22:17:35.748Z,3.80
2023-08-08T22:20:02.698Z,6.90
2023-08-08T22:22:29.721Z,3.50
2023-08-08T22:24:56.746Z,3.80
2023-08-08T22:27:23.780Z,4.60
2023-08-08T22:29:50.766Z,3.80
2023-08-08T22:32:17.750Z,3.90
2023-08-08T22:34:44.744Z,3.70
2023-08-08T22:37:11.692Z,6.50
2023-08-08T22:39:38.724Z,3.40
2023-08-08T22:42:05.811Z,4.10
2023-08-08T22:44:32.990Z,5.10
2023-08-08T22:47:00.274Z,2.80
2023-08-08T22:49:27.681Z,2.30
2023-08-08T22:51:54.698Z,3.00
2023-08-08T22:54:21.599Z,2.60
2023-08-08T22:56:48.587Z,3.90
2023-08-08T22:59:15.643Z,3.80
2023-08-08T23:01:42.618Z,4.60
2023-08-08T23:04:09.590Z,3.60
2023-08-08T23:06:36.557Z,2.80
2023-08-08T23:09:03.507Z,6.20
2023-08-08T23:11:30.462Z,3.60
2023-08-08T23:13:57.610Z,3.10
2023-08-08T23:16:24.650Z,3.80
2023-08-08T23:18:51.602Z,3.20
2023-08-08T23:21:19.400Z,4.70
2023-08-08T23:23:46.365Z,2.80
2023-08-08T23:26:13.320Z,3.20
2023-08-08T23:28:40.280Z,4.90
2023-08-08T23:31:07.221Z,3.70
2023-08-08T23:33:34.134Z,3.80
2023-08-08T23:36:01.069Z,3.00
2023-08-08T23:38:28.031Z,2.30
2023-08-08T23:40:54.962Z,2.10
2023-08-08T23:43:21.978Z,2.00
2023-08-08T23:45:49.362Z,2.70
2023-08-08T23:48:16.449Z,2.30
2023-08-08T23:50:43.742Z,2.60
2023-08-08T23:53:10.692Z,2.90
2023-08-08T23:55:37.614Z,2.30
2023-08-08T23:58:04.665Z,3.40
